createdAt,value
2017-06-12T00:00:47.900Z,8.50
2017-06-12T00:03:14.924Z,9.30
2017-06-12T00:05:41.912Z,8.07
2017-06-12T00:08:09.715Z,8.83
2017-06-12T00:10:36.699Z,8.07
2017-06-12T00:13:03.716Z,7.53
2017-06-12T00:15:30.705Z,7.73
2017-06-12T00:17:57.744Z,8.52
2017-06-12T00:20:24.776Z,6.70
2017-06-12T00:22:51.771Z,7.60
2017-06-12T00:25:18.813Z,6.67
2017-06-12T00:27:46.571Z,7.23
2017-06-12T00:30:14.367Z,6.57
2017-06-12T00:32:41.458Z,7.47
2017-06-12T00:35:08.461Z,7.07
2017-06-12T00:37:35.469Z,6.30
2017-06-12T00:40:03.215Z,6.73
2017-06-12T00:42:30.230Z,6.90
2017-06-12T00:44:57.215Z,8.53
2017-06-12T00:47:24.231Z,9.33
2017-06-12T00:49:51.235Z,9.30
2017-06-12T00:52:18.272Z,9.37
2017-06-12T00:54:46.024Z,8.60
2017-06-12T00:57:13.780Z,9.77
2017-06-12T00:59:40.796Z,10.20
2017-06-12T01:02:07.780Z,11.40
2017-06-12T01:04:34.794Z,10.57
2017-06-12T01:07:01.776Z,9.77
2017-06-12T01:09:29.587Z,8.90
2017-06-12T01:11:56.571Z,9.03
2017-06-12T01:14:23.580Z,8.63
2017-06-12T01:16:50.559Z,10.03
2017-06-12T01:19:17.583Z,8.30
2017-06-12T01:21:56.632Z,8.33
2017-06-12T01:24:23.647Z,7.47
2017-06-12T01:26:50.667Z,8.03
2017-06-12T01:29:17.708Z,6.40
2017-06-12T01:31:44.703Z,7.50
2017-06-12T01:34:11.744Z,7.43
2017-06-12T01:36:38.759Z,6.13
2017-06-12T01:39:05.763Z,6.70
2017-06-12T01:41:32.789Z,6.57
2017-06-12T01:43:59.800Z,6.37
2017-06-12T01:46:26.856Z,6.00
2017-06-12T01:48:53.861Z,5.57
2017-06-12T01:51:21.639Z,6.03
2017-06-12T01:53:48.671Z,8.20
2017-06-12T01:56:15.692Z,6.90
2017-06-12T01:58:42.679Z,6.80
2017-06-12T02:01:10.473Z,6.33
2017-06-12T02:03:37.467Z,5.93
2017-06-12T02:06:04.487Z,6.30
2017-06-12T02:08:31.479Z,5.80
2017-06-12T02:10:59.260Z,7.00
2017-06-12T02:13:26.244Z,6.87
2017-06-12T02:15:53.259Z,6.33
2017-06-12T02:18:20.263Z,6.80
2017-06-12T02:20:48.047Z,7.10
2017-06-12T02:23:15.796Z,5.60
2017-06-12T02:25:43.579Z,7.83
2017-06-12T02:28:10.563Z,7.00
2017-06-12T02:30:37.599Z,6.93
2017-06-12T02:33:04.631Z,6.97
2017-06-12T02:35:31.622Z,8.07
2017-06-12T02:37:58.632Z,9.13
2017-06-12T02:40:25.663Z,7.90
2017-06-12T02:42:52.659Z,8.17
2017-06-12T02:45:19.647Z,7.57
2017-06-12T02:47:47.432Z,7.93
2017-06-12T02:50:14.421Z,7.63
2017-06-12T02:52:41.543Z,7.63
2017-06-12T02:55:08.535Z,8.20
2017-06-12T02:57:36.311Z,8.17
2017-06-12T03:00:04.064Z,8.33
2017-06-12T03:02:31.835Z,7.40
2017-06-12T03:04:59.589Z,7.77
2017-06-12T03:07:27.383Z,7.47
2017-06-12T03:10:15.243Z,9.13
2017-06-12T03:12:42.296Z,10.80
2017-06-12T03:15:09.287Z,8.90
2017-06-12T03:17:37.051Z,7.30
2017-06-12T03:20:04.844Z,10.07
2017-06-12T03:22:31.835Z,8.10
2017-06-12T03:24:59.013Z,7.47
2017-06-12T03:27:26.775Z,9.00
2017-06-12T03:29:54.541Z,9.03
2017-06-12T03:32:22.503Z,9.30
2017-06-12T03:34:50.264Z,9.30
2017-06-12T03:37:18.043Z,8.93
2017-06-12T03:39:45.823Z,8.80
2017-06-12T03:42:12.828Z,10.27
2017-06-12T03:44:39.843Z,9.10
2017-06-12T03:47:06.832Z,8.37
2017-06-12T03:49:34.620Z,8.30
2017-06-12T03:52:01.604Z,10.80
2017-06-12T03:54:28.627Z,8.57
2017-06-12T03:56:55.648Z,8.97
2017-06-12T03:59:23.606Z,9.00
2017-06-12T04:01:51.382Z,10.10
2017-06-12T04:04:19.137Z,8.67
2017-06-12T04:06:47.055Z,8.30
2017-06-12T04:09:14.058Z,8.23
2017-06-12T04:11:41.847Z,8.80
2017-06-12T04:14:08.840Z,9.37
2017-06-12T04:16:35.863Z,8.93
2017-06-12T04:19:03.001Z,9.20
2017-06-12T04:21:30.031Z,8.60
2017-06-12T04:23:57.010Z,8.10
2017-06-12T04:26:24.072Z,8.80
2017-06-12T04:28:51.086Z,9.50
2017-06-12T04:31:18.116Z,9.33
2017-06-12T04:33:45.103Z,9.13
2017-06-12T04:36:12.089Z,9.30
2017-06-12T04:38:39.871Z,9.70
2017-06-12T04:41:06.888Z,8.07
2017-06-12T04:43:34.647Z,9.07
2017-06-12T04:46:01.628Z,7.93
2017-06-12T04:48:28.641Z,8.47
2017-06-12T04:50:55.684Z,8.97
2017-06-12T04:53:22.698Z,10.30
2017-06-12T04:55:49.685Z,7.93
2017-06-12T04:58:17.464Z,7.63
2017-06-12T05:00:44.455Z,8.27
2017-06-12T05:03:11.468Z,6.47
2017-06-12T05:05:38.460Z,8.40
2017-06-12T05:08:05.452Z,7.30
2017-06-12T05:10:32.505Z,6.87
2017-06-12T05:12:59.492Z,9.00
2017-06-12T05:15:26.471Z,7.43
2017-06-12T05:17:54.259Z,6.40
2017-06-12T05:20:21.333Z,7.33
2017-06-12T05:22:48.339Z,6.73
2017-06-12T05:25:15.349Z,7.50
2017-06-12T05:27:42.340Z,6.03
2017-06-12T05:30:09.364Z,5.87
2017-06-12T05:32:37.119Z,7.93
2017-06-12T05:35:04.126Z,5.93
2017-06-12T05:37:31.171Z,5.70
2017-06-12T05:39:58.163Z,5.03
2017-06-12T05:42:25.168Z,6.90
2017-06-12T05:44:52.192Z,5.40
2017-06-12T05:47:19.186Z,6.03
2017-06-12T05:49:46.204Z,6.27
2017-06-12T05:52:13.225Z,5.03
2017-06-12T05:54:40.231Z,5.87
2017-06-12T05:57:07.227Z,5.57
2017-06-12T05:59:34.244Z,4.83
2017-06-12T06:02:01.267Z,5.97
2017-06-12T06:04:28.252Z,4.83
2017-06-12T06:06:55.268Z,5.33
2017-06-12T06:09:22.251Z,4.30
2017-06-12T06:11:49.259Z,5.60
2017-06-12T06:14:16.249Z,4.77
2017-06-12T06:16:43.292Z,4.77
2017-06-12T06:19:10.285Z,4.70
2017-06-12T06:21:37.304Z,4.50
2017-06-12T06:24:04.289Z,5.20
2017-06-12T06:26:31.327Z,4.17
2017-06-12T06:28:58.343Z,4.27
2017-06-12T06:31:25.326Z,4.90
2017-06-12T06:33:52.495Z,4.33
2017-06-12T06:36:20.244Z,4.63
2017-06-12T06:38:47.991Z,3.83
2017-06-12T06:41:15.005Z,4.43
2017-06-12T06:43:41.989Z,4.90
2017-06-12T06:46:09.001Z,4.47
2017-06-12T06:48:35.994Z,5.40
2017-06-12T06:51:03.771Z,5.00
2017-06-12T06:53:31.519Z,4.47
2017-06-12T06:55:59.336Z,4.10
2017-06-12T06:58:26.325Z,4.70
2017-06-12T07:00:53.304Z,4.23
2017-06-12T07:03:20.319Z,4.53
2017-06-12T07:05:47.324Z,4.27
2017-06-12T07:08:14.332Z,3.67
2017-06-12T07:10:41.324Z,3.53
2017-06-12T07:13:08.331Z,3.67
2017-06-12T07:15:35.315Z,3.90
2017-06-12T07:18:02.354Z,3.23
2017-06-12T07:20:29.375Z,4.37
2017-06-12T07:22:56.407Z,3.50
2017-06-12T07:25:24.155Z,4.57
2017-06-12T07:27:51.903Z,4.90
2017-06-12T07:30:18.921Z,4.23
2017-06-12T07:32:45.910Z,4.20
2017-06-12T07:35:13.080Z,5.43
2017-06-12T07:37:40.068Z,3.27
2017-06-12T07:40:07.103Z,3.60
2017-06-12T07:42:34.115Z,3.57
2017-06-12T07:45:01.896Z,4.10
2017-06-12T07:47:28.884Z,3.60
2017-06-12T07:49:55.919Z,3.93
2017-06-12T07:52:22.929Z,3.73
2017-06-12T07:54:49.943Z,3.47
2017-06-12T07:57:16.927Z,3.33
2017-06-12T07:59:43.996Z,3.90
2017-06-12T08:02:10.988Z,3.10
2017-06-12T08:04:38.791Z,4.10
2017-06-12T08:07:05.799Z,3.10
2017-06-12T08:09:32.788Z,3.40
2017-06-12T08:11:59.803Z,3.27
2017-06-12T08:14:27.568Z,3.60
2017-06-12T08:16:55.369Z,3.10
2017-06-12T08:19:22.356Z,4.37
2017-06-12T08:21:49.347Z,3.10
2017-06-12T08:24:16.361Z,4.10
2017-06-12T08:26:44.124Z,3.10
2017-06-12T08:29:11.939Z,3.37
2017-06-12T08:31:38.920Z,2.90
2017-06-12T08:34:05.968Z,3.10
2017-06-12T08:36:32.951Z,3.90
2017-06-12T08:38:59.932Z,3.30
2017-06-12T08:41:26.958Z,3.07
2017-06-12T08:43:53.943Z,2.70
2017-06-12T08:46:20.957Z,3.53
2017-06-12T08:48:47.943Z,3.50
2017-06-12T08:51:14.973Z,3.00
2017-06-12T08:53:42.000Z,3.63
2017-06-12T08:56:08.980Z,3.80
2017-06-12T08:58:35.999Z,2.80
2017-06-12T09:01:03.029Z,4.00
2017-06-12T09:03:30.011Z,3.40
2017-06-12T09:05:56.999Z,2.60
2017-06-12T09:08:24.011Z,2.90
2017-06-12T09:10:51.031Z,4.60
2017-06-12T09:13:18.016Z,2.33
2017-06-12T09:15:45.980Z,2.77
2017-06-12T09:18:13.736Z,2.60
2017-06-12T09:20:40.724Z,2.63
2017-06-12T09:23:08.575Z,2.90
2017-06-12T09:25:36.364Z,3.20
2017-06-12T09:28:03.345Z,2.80
2017-06-12T09:30:30.328Z,3.43
2017-06-12T09:32:58.104Z,3.03
2017-06-12T09:35:25.180Z,2.80
2017-06-12T09:37:52.225Z,3.30
2017-06-12T09:40:19.220Z,3.00
2017-06-12T09:42:46.980Z,3.30
2017-06-12T09:45:14.023Z,3.07
2017-06-12T09:47:41.002Z,3.20
2017-06-12T09:50:08.090Z,3.10
2017-06-12T09:52:35.114Z,3.53
2017-06-12T09:55:02.103Z,2.93
2017-06-12T09:57:29.135Z,2.67
2017-06-12T09:59:56.124Z,2.47
2017-06-12T10:02:23.163Z,2.63
2017-06-12T10:04:50.924Z,3.00
2017-06-12T10:07:18.704Z,3.23
2017-06-12T10:09:45.745Z,3.73
2017-06-12T10:12:12.739Z,3.50
2017-06-12T10:14:39.757Z,2.90
2017-06-12T10:17:06.740Z,2.20
2017-06-12T10:19:33.766Z,2.57
2017-06-12T10:22:00.767Z,2.37
2017-06-12T10:27:01.743Z,4.10
2017-06-12T10:29:28.817Z,3.23
2017-06-12T10:31:55.965Z,2.67
2017-06-12T10:34:22.947Z,3.60
2017-06-12T10:36:50.205Z,2.90
2017-06-12T10:39:17.987Z,5.43
2017-06-12T10:41:44.980Z,3.30
2017-06-12T10:44:12.000Z,3.70
2017-06-12T10:46:38.984Z,3.40
2017-06-12T10:49:06.011Z,2.70
2017-06-12T10:51:32.999Z,3.60
2017-06-12T10:54:00.020Z,3.10
2017-06-12T10:56:27.007Z,3.60
2017-06-12T10:58:54.787Z,3.10
2017-06-12T11:01:21.779Z,3.83
2017-06-12T11:03:48.795Z,3.60
2017-06-12T11:06:15.785Z,3.00
2017-06-12T11:08:42.792Z,3.73
2017-06-12T11:11:10.907Z,3.30
2017-06-12T11:13:37.923Z,3.13
2017-06-12T11:16:04.912Z,3.77
2017-06-12T11:18:32.721Z,4.00
2017-06-12T11:20:59.714Z,4.20
2017-06-12T11:23:26.700Z,3.33
2017-06-12T11:25:53.765Z,3.80
2017-06-12T11:28:20.751Z,3.57
2017-06-12T11:30:47.763Z,3.77
2017-06-12T11:33:14.756Z,5.07
2017-06-12T11:35:42.565Z,4.23
2017-06-12T11:38:09.563Z,3.10
2017-06-12T11:40:38.354Z,4.37
2017-06-12T11:43:06.167Z,3.80
2017-06-12T11:45:33.165Z,3.30
2017-06-12T11:48:00.949Z,4.00
2017-06-12T11:50:27.951Z,3.97
2017-06-12T11:52:54.988Z,4.27
2017-06-12T11:55:22.001Z,3.73
2017-06-12T11:57:48.990Z,3.67
2017-06-12T12:00:16.088Z,3.60
2017-06-12T12:02:43.075Z,4.47
2017-06-12T12:05:10.065Z,4.20
2017-06-12T12:07:37.085Z,4.00
2017-06-12T12:10:04.074Z,3.80
2017-06-12T12:12:31.095Z,3.90
2017-06-12T12:14:58.847Z,4.37
2017-06-12T12:17:25.883Z,3.00
2017-06-12T12:19:52.865Z,3.90
2017-06-12T12:22:19.861Z,3.30
2017-06-12T12:24:46.904Z,3.83
2017-06-12T12:27:13.892Z,3.20
2017-06-12T12:29:41.680Z,3.50
2017-06-12T12:32:08.667Z,3.90
2017-06-12T12:34:35.688Z,3.90
2017-06-12T12:37:02.677Z,3.83
2017-06-12T12:39:30.460Z,5.47
2017-06-12T12:41:58.563Z,4.90
2017-06-12T12:44:25.592Z,5.37
2017-06-12T12:46:52.579Z,3.80
2017-06-12T12:49:19.576Z,3.10
2017-06-12T12:51:46.620Z,3.60
2017-06-12T12:54:13.641Z,3.57
2017-06-12T12:56:40.752Z,4.13
2017-06-12T12:59:07.948Z,4.20
2017-06-12T13:01:35.811Z,3.37
2017-06-12T13:04:03.564Z,3.30
2017-06-12T13:06:30.572Z,4.50
2017-06-12T13:08:57.568Z,3.80
2017-06-12T13:11:25.359Z,3.63
2017-06-12T13:13:52.351Z,3.83
2017-06-12T13:16:19.415Z,2.73
2017-06-12T13:18:46.404Z,3.70
2017-06-12T13:21:13.395Z,3.40
2017-06-12T13:23:40.418Z,3.77
2017-06-12T13:26:07.446Z,3.03
2017-06-12T13:28:34.440Z,4.30
2017-06-12T13:31:01.507Z,3.27
2017-06-12T13:33:29.299Z,3.63
2017-06-12T13:35:56.337Z,3.17
2017-06-12T13:38:23.360Z,3.27
2017-06-12T13:40:51.229Z,3.37
2017-06-12T13:43:18.268Z,5.23
2017-06-12T13:45:45.297Z,3.43
2017-06-12T13:48:12.332Z,3.10
2017-06-12T13:50:39.320Z,3.70
2017-06-12T13:53:07.136Z,4.13
2017-06-12T13:55:34.119Z,3.90
2017-06-12T13:58:01.136Z,5.23
2017-06-12T14:00:28.153Z,4.03
2017-06-12T14:02:55.150Z,5.10
2017-06-12T14:05:22.356Z,4.97
2017-06-12T14:07:49.372Z,4.00
2017-06-12T14:10:16.388Z,4.63
2017-06-12T14:12:43.389Z,4.40
2017-06-12T14:15:10.443Z,3.80
2017-06-12T14:17:37.471Z,5.23
2017-06-12T14:20:04.517Z,4.00
2017-06-12T14:22:31.516Z,3.33
2017-06-12T14:24:58.511Z,3.97
2017-06-12T14:27:25.519Z,3.20
2017-06-12T14:29:52.517Z,4.00
2017-06-12T14:32:19.535Z,3.73
2017-06-12T14:34:47.292Z,4.57
2017-06-12T14:37:15.119Z,3.33
2017-06-12T14:39:42.109Z,4.73
2017-06-12T14:42:09.867Z,21.93
2017-06-12T14:44:36.921Z,9.90
2017-06-12T14:47:03.918Z,4.07
2017-06-12T14:49:30.947Z,3.70
2017-06-12T14:51:57.931Z,4.10
2017-06-12T14:54:24.976Z,4.07
2017-06-12T14:56:51.968Z,4.13
2017-06-12T14:59:18.980Z,4.23
2017-06-12T15:01:46.771Z,4.30
2017-06-12T15:04:13.751Z,4.63
2017-06-12T15:06:40.769Z,3.33
2017-06-12T15:09:07.785Z,3.50
2017-06-12T15:11:35.584Z,2.90
2017-06-12T15:14:02.571Z,3.63
2017-06-12T15:16:29.701Z,3.90
2017-06-12T15:18:56.691Z,3.30
2017-06-12T15:21:24.663Z,3.33
2017-06-12T15:23:52.451Z,3.17
2017-06-12T15:26:19.438Z,4.40
2017-06-12T15:28:46.448Z,3.13
2017-06-12T15:31:13.468Z,3.97
2017-06-12T15:33:41.256Z,4.53
2017-06-12T15:36:08.252Z,3.60
2017-06-12T15:38:35.274Z,4.00
2017-06-12T15:41:02.350Z,4.28
2017-06-12T15:43:29.371Z,4.13
2017-06-12T15:45:56.355Z,4.37
2017-06-12T15:48:23.391Z,3.77
2017-06-12T15:50:50.405Z,4.73
2017-06-12T15:53:17.454Z,4.50
2017-06-12T15:55:44.447Z,3.10
2017-06-12T15:58:12.243Z,4.40
2017-06-12T16:00:40.295Z,4.70
2017-06-12T16:03:08.096Z,5.10
2017-06-12T16:05:35.156Z,5.37
2017-06-12T16:08:02.196Z,4.70
2017-06-12T16:10:29.235Z,4.37
2017-06-12T16:12:56.224Z,4.00
2017-06-12T16:15:23.242Z,4.17
2017-06-12T16:17:50.244Z,5.40
2017-06-12T16:20:17.257Z,5.33
2017-06-12T16:22:44.251Z,4.60
2017-06-12T16:25:11.242Z,4.20
2017-06-12T16:27:38.256Z,5.10
2017-06-12T16:30:05.251Z,4.77
2017-06-12T16:32:32.291Z,4.90
2017-06-12T16:34:59.288Z,4.63
2017-06-12T16:37:26.335Z,5.20
2017-06-12T16:39:53.348Z,5.77
2017-06-12T16:42:20.355Z,4.50
2017-06-12T16:44:47.384Z,4.70
2017-06-12T16:47:14.377Z,4.80
2017-06-12T16:49:41.395Z,5.83
2017-06-12T16:52:08.394Z,4.57
2017-06-12T16:54:35.475Z,4.50
2017-06-12T16:57:02.471Z,5.53
2017-06-12T16:59:30.302Z,5.50
2017-06-12T17:01:57.304Z,5.13
2017-06-12T17:04:24.296Z,4.60
2017-06-12T17:06:51.315Z,4.87
2017-06-12T17:09:18.307Z,4.37
2017-06-12T17:11:45.334Z,4.83
2017-06-12T17:14:12.324Z,5.30
2017-06-12T17:16:39.372Z,4.60
2017-06-12T17:19:07.154Z,4.90
2017-06-12T17:21:34.165Z,6.13
2017-06-12T17:24:01.188Z,4.53
2017-06-12T17:26:28.172Z,4.93
2017-06-12T17:28:55.955Z,4.70
2017-06-12T17:31:22.944Z,3.77
2017-06-12T17:33:49.992Z,3.90
2017-06-12T17:36:17.039Z,4.70
2017-06-12T17:38:44.061Z,4.70
2017-06-12T17:41:11.080Z,4.07
2017-06-12T17:43:38.131Z,4.00
2017-06-12T17:46:05.155Z,4.60
2017-06-12T17:48:32.915Z,4.67
2017-06-12T17:51:00.730Z,4.70
2017-06-12T17:53:27.727Z,4.67
2017-06-12T17:55:55.524Z,6.00
2017-06-12T17:58:22.537Z,4.80
2017-06-12T18:00:50.322Z,4.70
2017-06-12T18:03:17.313Z,4.17
2017-06-12T18:05:44.352Z,4.70
2017-06-12T18:08:11.339Z,4.50
2017-06-12T18:10:38.344Z,4.60
2017-06-12T18:13:05.356Z,5.30
2017-06-12T18:15:32.380Z,5.43
2017-06-12T18:18:00.163Z,4.57
2017-06-12T18:20:27.159Z,4.80
2017-06-12T18:22:54.184Z,4.87
2017-06-12T18:25:21.200Z,4.43
2017-06-12T18:27:48.347Z,5.20
2017-06-12T18:30:15.340Z,4.03
2017-06-12T18:32:42.384Z,4.63
2017-06-12T18:35:09.420Z,4.50
2017-06-12T18:37:36.462Z,5.80
2017-06-12T18:40:03.514Z,3.87
2017-06-12T18:42:30.531Z,4.80
2017-06-12T18:44:57.520Z,4.73
2017-06-12T18:47:24.536Z,4.97
2017-06-12T18:49:51.533Z,4.67
2017-06-12T18:52:18.564Z,5.07
2017-06-12T18:54:45.559Z,5.40
2017-06-12T18:57:12.640Z,4.23
2017-06-12T18:59:39.661Z,4.47
2017-06-12T19:02:07.350Z,5.10
2017-06-12T19:04:34.366Z,4.13
2017-06-12T19:07:03.221Z,4.17
2017-06-12T19:09:30.471Z,4.07
2017-06-12T19:11:57.493Z,3.67
2017-06-12T19:14:24.549Z,3.60
2017-06-12T19:16:51.572Z,5.03
2017-06-12T19:19:18.601Z,5.07
2017-06-12T19:21:45.590Z,4.90
2017-06-12T19:24:12.651Z,4.33
2017-06-12T19:26:39.662Z,3.97
2017-06-12T19:29:06.690Z,4.13
2017-06-12T19:31:33.684Z,4.50
2017-06-12T19:34:00.707Z,3.63
2017-06-12T19:36:27.706Z,4.60
2017-06-12T19:38:54.768Z,3.67
2017-06-12T19:41:21.793Z,4.22
2017-06-12T19:43:49.555Z,4.40
2017-06-12T19:46:17.474Z,3.87
2017-06-12T19:48:44.472Z,3.93
2017-06-12T19:51:12.232Z,5.07
2017-06-12T19:53:40.021Z,3.37
2017-06-12T19:56:07.019Z,4.67
2017-06-12T19:58:34.048Z,3.83
2017-06-12T20:01:01.036Z,5.33
2017-06-12T20:03:28.849Z,4.03
2017-06-12T20:05:55.846Z,3.50
2017-06-12T20:08:23.643Z,3.70
2017-06-12T20:10:50.632Z,4.13
2017-06-12T20:13:17.632Z,4.47
2017-06-12T20:15:44.660Z,3.97
2017-06-12T20:18:11.664Z,3.43
2017-06-12T20:20:38.685Z,4.10
2017-06-12T20:23:05.679Z,4.80
2017-06-12T20:25:33.465Z,4.10
2017-06-12T20:28:00.467Z,3.77
2017-06-12T20:30:27.498Z,3.20
2017-06-12T20:32:54.497Z,4.70
2017-06-12T20:35:22.271Z,3.10
2017-06-12T20:37:49.256Z,4.93
2017-06-12T20:40:16.639Z,3.33
2017-06-12T20:42:43.619Z,5.23
2017-06-12T20:45:10.600Z,4.20
2017-06-12T20:47:37.640Z,4.17
2017-06-12T20:50:04.627Z,3.53
2017-06-12T20:52:31.656Z,4.00
2017-06-12T20:54:58.680Z,3.67
2017-06-12T20:57:25.663Z,3.87
2017-06-12T20:59:52.676Z,3.40
2017-06-12T21:02:19.663Z,5.97
2017-06-12T21:04:47.451Z,4.20
2017-06-12T21:07:14.432Z,4.00
2017-06-12T21:09:41.473Z,4.73
2017-06-12T21:12:08.555Z,3.50
2017-06-12T21:14:35.535Z,4.40
2017-06-12T21:17:02.559Z,3.90
2017-06-12T21:19:30.351Z,5.37
2017-06-12T21:21:57.331Z,4.27
2017-06-12T21:24:24.340Z,4.43
2017-06-12T21:26:51.327Z,3.97
2017-06-12T21:29:18.332Z,3.73
2017-06-12T21:31:45.312Z,4.27
2017-06-12T21:34:12.324Z,3.37
2017-06-12T21:36:39.307Z,5.13
2017-06-12T21:39:06.319Z,4.13
2017-06-12T21:41:33.299Z,4.40
2017-06-12T21:44:00.311Z,3.60
2017-06-12T21:46:27.290Z,3.07
2017-06-12T21:48:54.319Z,3.90
2017-06-12T21:51:21.315Z,3.50
2017-06-12T21:53:48.299Z,5.10
2017-06-12T21:56:15.460Z,3.60
2017-06-12T21:58:42.439Z,4.87
2017-06-12T22:01:09.456Z,3.40
2017-06-12T22:03:36.438Z,3.40
2017-06-12T22:06:03.448Z,4.00
2017-06-12T22:08:30.437Z,4.30
2017-06-12T22:10:57.452Z,3.70
2017-06-12T22:13:24.439Z,4.57
2017-06-12T22:15:52.219Z,3.67
2017-06-12T22:18:19.199Z,3.00
2017-06-12T22:20:46.287Z,3.80
2017-06-12T22:23:13.391Z,4.80
2017-06-12T22:25:40.371Z,3.60
2017-06-12T22:28:07.384Z,3.00
2017-06-12T22:30:34.441Z,3.70
2017-06-12T22:33:01.518Z,4.10
2017-06-12T22:35:29.347Z,3.20
2017-06-12T22:37:56.363Z,5.63
2017-06-12T22:40:23.344Z,3.67
2017-06-12T22:42:50.425Z,4.13
2017-06-12T22:45:18.198Z,4.37
2017-06-12T22:47:45.953Z,3.67
2017-06-12T22:50:13.064Z,4.40
2017-06-12T22:52:40.044Z,3.17
2017-06-12T22:55:07.082Z,4.67
2017-06-12T22:57:34.144Z,3.90
2017-06-12T23:00:01.133Z,3.77
2017-06-12T23:02:28.143Z,5.07
2017-06-12T23:04:56.389Z,4.50
2017-06-12T23:07:24.196Z,4.57
2017-06-12T23:09:51.283Z,3.87
2017-06-12T23:12:18.315Z,3.23
2017-06-12T23:14:45.325Z,3.13
2017-06-12T23:17:13.075Z,4.53
2017-06-12T23:19:40.087Z,4.33
2017-06-12T23:22:07.160Z,3.33
2017-06-12T23:24:34.223Z,4.23
2017-06-12T23:27:01.206Z,5.33
2017-06-12T23:29:28.373Z,3.50
2017-06-12T23:31:56.215Z,3.50
2017-06-12T23:34:23.199Z,4.83
2017-06-12T23:36:50.233Z,3.87
2017-06-12T23:39:17.217Z,3.40
2017-06-12T23:41:44.255Z,3.70
2017-06-12T23:44:11.239Z,3.77
2017-06-12T23:46:38.255Z,4.17
2017-06-12T23:49:05.284Z,4.47
2017-06-12T23:51:32.274Z,3.83
2017-06-12T23:53:59.288Z,3.40
2017-06-12T23:56:26.307Z,3.93
2017-06-12T23:58:53.287Z,4.10
